Terminal Aerodrome Forecast
Issued by NWS Mt. Holly, NJ

Home | Current Version | Previous Version | Text Only | Print | Product List | Glossary On
Versions: 1 2 3 4 5 6 7 8 9 10 11 12 13 14 15 16 17 18 19 20 21 22 23 24 25 26 27
000
FTUS41 KPHI 051503 AAB
TAFTTN
TAF AMD
KTTN 051503Z 0515/0612 05010KT P6SM OVC015
     FM051700 05010G18KT P6SM OVC022
     FM051900 04010KT P6SM OVC035
     FM060900 05008KT 5SM -RA BR OVC015=

USA.gov is the U.S. government's official web portal to all federal, state and local government web resources and services.